sensor_id;sensor_type;location;lat;lon;timestamp;pressure;altitude;pressure_sealevel;temperature;humidity
35647;BME280;28680;45.642;13.756;2023-03-29T00:00:07;102121.41;;;9.55;49.08
35647;BME280;28680;45.642;13.756;2023-03-29T00:02:39;102112.66;;;9.56;48.05
35647;BME280;28680;45.642;13.756;2023-03-29T00:05:06;102110.97;;;9.71;46.59
35647;BME280;28680;45.642;13.756;2023-03-29T00:07:32;102101.00;;;9.62;46.79
35647;BME280;28680;45.642;13.756;2023-03-29T00:09:59;102113.69;;;9.52;47.00
35647;BME280;28680;45.642;13.756;2023-03-29T00:12:25;102117.03;;;9.56;49.33
35647;BME280;28680;45.642;13.756;2023-03-29T00:14:52;102129.91;;;9.61;49.31
35647;BME280;28680;45.642;13.756;2023-03-29T00:17:17;102117.88;;;9.56;49.85
35647;BME280;28680;45.642;13.756;2023-03-29T00:19:44;102123.59;;;9.47;51.03
35647;BME280;28680;45.642;13.756;2023-03-29T00:22:10;102120.22;;;9.45;52.49
35647;BME280;28680;45.642;13.756;2023-03-29T00:24:36;102125.59;;;9.42;51.29
35647;BME280;28680;45.642;13.756;2023-03-29T00:27:02;102123.44;;;9.33;53.05
35647;BME280;28680;45.642;13.756;2023-03-29T00:29:28;102127.16;;;9.11;52.35
35647;BME280;28680;45.642;13.756;2023-03-29T00:31:54;102122.13;;;9.24;51.06
35647;BME280;28680;45.642;13.756;2023-03-29T00:34:21;102114.19;;;9.43;53.41
35647;BME280;28680;45.642;13.756;2023-03-29T00:36:47;102122.16;;;9.42;53.40
35647;BME280;28680;45.642;13.756;2023-03-29T00:39:19;102119.41;;;9.43;53.54
35647;BME280;28680;45.642;13.756;2023-03-29T00:41:46;102117.13;;;9.37;53.18
35647;BME280;28680;45.642;13.756;2023-03-29T00:47:17;102127.00;;;9.32;55.07
35647;BME280;28680;45.642;13.756;2023-03-29T00:49:45;102123.22;;;9.38;53.70
35647;BME280;28680;45.642;13.756;2023-03-29T00:52:13;102116.91;;;9.42;53.26
35647;BME280;28680;45.642;13.756;2023-03-29T00:54:40;102111.03;;;9.36;55.50
35647;BME280;28680;45.642;13.756;2023-03-29T00:57:08;102118.13;;;9.34;56.72
35647;BME280;28680;45.642;13.756;2023-03-29T00:59:34;102115.38;;;9.38;58.59
35647;BME280;28680;45.642;13.756;2023-03-29T01:02:02;102120.28;;;9.44;61.38
35647;BME280;28680;45.642;13.756;2023-03-29T01:04:54;102117.75;;;9.42;63.31
35647;BME280;28680;45.642;13.756;2023-03-29T01:07:46;102123.69;;;9.46;65.08
35647;BME280;28680;45.642;13.756;2023-03-29T01:10:21;102128.38;;;9.56;64.31
35647;BME280;28680;45.642;13.756;2023-03-29T01:12:50;102126.94;;;9.67;66.77
35647;BME280;28680;45.642;13.756;2023-03-29T01:15:21;102129.28;;;9.55;70.97
35647;BME280;28680;45.642;13.756;2023-03-29T01:17:48;102123.97;;;9.57;71.08
35647;BME280;28680;45.642;13.756;2023-03-29T01:23:30;102116.44;;;9.33;71.11
35647;BME280;28680;45.642;13.756;2023-03-29T01:28:50;102116.50;;;9.49;66.23
35647;BME280;28680;45.642;13.756;2023-03-29T01:31:27;102105.66;;;9.40;70.02
35647;BME280;28680;45.642;13.756;2023-03-29T01:34:00;102105.16;;;9.49;68.08
35647;BME280;28680;45.642;13.756;2023-03-29T01:36:35;102112.75;;;9.38;69.46
35647;BME280;28680;45.642;13.756;2023-03-29T01:39:05;102103.72;;;9.26;71.90
35647;BME280;28680;45.642;13.756;2023-03-29T01:41:41;102090.94;;;9.20;65.21
35647;BME280;28680;45.642;13.756;2023-03-29T01:45:02;102091.31;;;9.29;64.12
35647;BME280;28680;45.642;13.756;2023-03-29T01:52:25;102089.44;;;9.49;46.67
35647;BME280;28680;45.642;13.756;2023-03-29T01:54:56;102088.50;;;9.50;46.16
35647;BME280;28680;45.642;13.756;2023-03-29T01:57:24;102089.34;;;9.50;45.58
35647;BME280;28680;45.642;13.756;2023-03-29T01:59:50;102090.66;;;9.59;43.63
35647;BME280;28680;45.642;13.756;2023-03-29T02:02:17;102099.97;;;9.65;43.78
35647;BME280;28680;45.642;13.756;2023-03-29T02:04:46;102099.03;;;9.66;43.34
35647;BME280;28680;45.642;13.756;2023-03-29T02:07:16;102087.28;;;9.73;42.27
35647;BME280;28680;45.642;13.756;2023-03-29T02:09:43;102083.84;;;9.72;42.08
35647;BME280;28680;45.642;13.756;2023-03-29T02:12:10;102080.19;;;9.75;41.96
35647;BME280;28680;45.642;13.756;2023-03-29T02:14:36;102076.25;;;9.84;41.54
35647;BME280;28680;45.642;13.756;2023-03-29T02:17:22;102070.72;;;9.88;40.51
35647;BME280;28680;45.642;13.756;2023-03-29T02:19:51;102073.13;;;9.93;39.50
35647;BME280;28680;45.642;13.756;2023-03-29T02:22:22;102078.97;;;9.98;39.22
35647;BME280;28680;45.642;13.756;2023-03-29T02:24:51;102090.91;;;10.04;38.90
35647;BME280;28680;45.642;13.756;2023-03-29T02:27:21;102084.47;;;10.09;38.45
35647;BME280;28680;45.642;13.756;2023-03-29T02:29:46;102084.22;;;10.14;38.59
35647;BME280;28680;45.642;13.756;2023-03-29T02:32:27;102079.56;;;10.19;38.08
35647;BME280;28680;45.642;13.756;2023-03-29T02:34:59;102075.91;;;10.22;37.62
35647;BME280;28680;45.642;13.756;2023-03-29T02:37:26;102078.28;;;10.26;37.12
35647;BME280;28680;45.642;13.756;2023-03-29T02:39:55;102083.16;;;10.34;37.00
35647;BME280;28680;45.642;13.756;2023-03-29T02:42:22;102082.28;;;10.33;37.14
35647;BME280;28680;45.642;13.756;2023-03-29T02:44:49;102078.75;;;10.34;37.53
35647;BME280;28680;45.642;13.756;2023-03-29T02:47:31;102063.69;;;10.38;37.59
35647;BME280;28680;45.642;13.756;2023-03-29T02:49:58;102053.00;;;10.41;37.39
35647;BME280;28680;45.642;13.756;2023-03-29T02:52:27;102041.50;;;10.44;37.28
35647;BME280;28680;45.642;13.756;2023-03-29T02:54:57;102043.50;;;10.39;37.83
35647;BME280;28680;45.642;13.756;2023-03-29T02:57:25;102052.16;;;10.41;37.39
35647;BME280;28680;45.642;13.756;2023-03-29T02:59:52;102037.16;;;10.43;37.91
35647;BME280;28680;45.642;13.756;2023-03-29T03:02:19;102031.16;;;10.41;37.90
35647;BME280;28680;45.642;13.756;2023-03-29T03:04:45;102040.22;;;10.35;37.58
35647;BME280;28680;45.642;13.756;2023-03-29T03:07:10;102046.13;;;10.23;37.97
35647;BME280;28680;45.642;13.756;2023-03-29T03:09:36;102061.78;;;10.24;38.49
35647;BME280;28680;45.642;13.756;2023-03-29T03:12:02;102046.22;;;10.37;38.55
35647;BME280;28680;45.642;13.756;2023-03-29T03:14:28;102058.16;;;10.43;38.39
35647;BME280;28680;45.642;13.756;2023-03-29T03:16:54;102069.41;;;10.45;38.81
35647;BME280;28680;45.642;13.756;2023-03-29T03:19:20;102070.84;;;10.50;38.64
35647;BME280;28680;45.642;13.756;2023-03-29T03:21:46;102063.47;;;10.57;39.15
35647;BME280;28680;45.642;13.756;2023-03-29T03:24:12;102061.59;;;10.59;39.38
35647;BME280;28680;45.642;13.756;2023-03-29T03:26:38;102064.59;;;10.53;39.51
35647;BME280;28680;45.642;13.756;2023-03-29T03:29:04;102068.88;;;10.54;40.26
35647;BME280;28680;45.642;13.756;2023-03-29T03:31:29;102065.34;;;10.55;40.05
35647;BME280;28680;45.642;13.756;2023-03-29T03:33:55;102068.28;;;10.49;40.10
35647;BME280;28680;45.642;13.756;2023-03-29T03:36:21;102049.16;;;10.47;40.24
35647;BME280;28680;45.642;13.756;2023-03-29T03:38:51;102051.72;;;10.48;40.50
35647;BME280;28680;45.642;13.756;2023-03-29T03:41:17;102027.09;;;10.51;40.88
35647;BME280;28680;45.642;13.756;2023-03-29T03:43:43;102014.72;;;10.53;41.36
35647;BME280;28680;45.642;13.756;2023-03-29T03:46:16;102026.28;;;10.49;40.80
35647;BME280;28680;45.642;13.756;2023-03-29T03:48:42;102036.72;;;10.50;40.77
35647;BME280;28680;45.642;13.756;2023-03-29T03:51:08;102025.97;;;10.55;41.00
35647;BME280;28680;45.642;13.756;2023-03-29T03:53:34;102030.34;;;10.54;41.33
35647;BME280;28680;45.642;13.756;2023-03-29T03:56:00;102020.81;;;10.53;41.74
35647;BME280;28680;45.642;13.756;2023-03-29T03:58:36;102001.59;;;10.53;41.52
35647;BME280;28680;45.642;13.756;2023-03-29T04:01:03;101999.03;;;10.51;41.54
35647;BME280;28680;45.642;13.756;2023-03-29T04:03:29;102007.09;;;10.48;41.69
35647;BME280;28680;45.642;13.756;2023-03-29T04:05:58;102018.63;;;10.46;41.50
35647;BME280;28680;45.642;13.756;2023-03-29T04:08:25;102006.09;;;10.51;41.55
35647;BME280;28680;45.642;13.756;2023-03-29T04:10:52;102007.84;;;10.50;41.62
35647;BME280;28680;45.642;13.756;2023-03-29T04:13:19;102011.22;;;10.52;41.60
35647;BME280;28680;45.642;13.756;2023-03-29T04:15:45;102004.28;;;10.51;41.54
35647;BME280;28680;45.642;13.756;2023-03-29T04:18:14;101990.13;;;10.54;41.71
35647;BME280;28680;45.642;13.756;2023-03-29T04:20:42;101989.22;;;10.55;41.93
35647;BME280;28680;45.642;13.756;2023-03-29T04:23:08;102007.91;;;10.49;42.28
35647;BME280;28680;45.642;13.756;2023-03-29T04:25:34;101993.50;;;10.56;42.32
35647;BME280;28680;45.642;13.756;2023-03-29T04:27:59;101996.34;;;10.53;42.79
35647;BME280;28680;45.642;13.756;2023-03-29T04:30:25;101992.84;;;10.52;43.34
35647;BME280;28680;45.642;13.756;2023-03-29T04:32:51;101996.97;;;10.57;43.78
35647;BME280;28680;45.642;13.756;2023-03-29T04:35:17;102004.00;;;10.56;44.59
35647;BME280;28680;45.642;13.756;2023-03-29T04:37:43;102003.84;;;10.59;44.49
35647;BME280;28680;45.642;13.756;2023-03-29T04:40:09;101989.69;;;10.62;45.36
35647;BME280;28680;45.642;13.756;2023-03-29T04:42:39;101997.41;;;10.65;46.04
35647;BME280;28680;45.642;13.756;2023-03-29T04:45:09;101996.56;;;10.64;46.61
35647;BME280;28680;45.642;13.756;2023-03-29T04:47:35;102000.84;;;10.65;47.49
35647;BME280;28680;45.642;13.756;2023-03-29T04:50:01;101991.84;;;10.69;47.95
35647;BME280;28680;45.642;13.756;2023-03-29T04:52:27;101985.69;;;10.70;49.16
35647;BME280;28680;45.642;13.756;2023-03-29T04:54:58;101986.69;;;10.68;49.94
35647;BME280;28680;45.642;13.756;2023-03-29T04:57:24;101985.59;;;10.72;50.38
35647;BME280;28680;45.642;13.756;2023-03-29T04:59:50;101987.34;;;10.71;52.07
35647;BME280;28680;45.642;13.756;2023-03-29T05:02:15;101988.22;;;10.72;52.94
35647;BME280;28680;45.642;13.756;2023-03-29T05:04:41;101990.94;;;10.70;54.36
35647;BME280;28680;45.642;13.756;2023-03-29T05:07:07;101983.81;;;10.72;55.57
35647;BME280;28680;45.642;13.756;2023-03-29T05:09:33;101991.59;;;10.74;57.03
35647;BME280;28680;45.642;13.756;2023-03-29T05:12:00;101989.72;;;10.76;58.76
35647;BME280;28680;45.642;13.756;2023-03-29T05:14:26;101979.03;;;10.79;60.80
35647;BME280;28680;45.642;13.756;2023-03-29T05:16:51;101983.28;;;10.82;62.38
35647;BME280;28680;45.642;13.756;2023-03-29T05:19:17;101981.47;;;10.82;64.20
35647;BME280;28680;45.642;13.756;2023-03-29T05:21:47;101990.03;;;10.86;66.27
35647;BME280;28680;45.642;13.756;2023-03-29T05:24:12;101978.59;;;10.87;68.34
35647;BME280;28680;45.642;13.756;2023-03-29T05:26:38;101981.09;;;10.88;68.92
35647;BME280;28680;45.642;13.756;2023-03-29T05:29:05;101982.06;;;10.87;70.39
35647;BME280;28680;45.642;13.756;2023-03-29T05:31:34;101992.75;;;10.84;71.88
35647;BME280;28680;45.642;13.756;2023-03-29T05:34:02;101998.09;;;10.97;72.57
35647;BME280;28680;45.642;13.756;2023-03-29T05:36:29;102004.13;;;10.99;73.31
35647;BME280;28680;45.642;13.756;2023-03-29T05:38:55;102011.06;;;11.00;74.02
35647;BME280;28680;45.642;13.756;2023-03-29T05:41:22;102006.75;;;10.99;76.92
35647;BME280;28680;45.642;13.756;2023-03-29T05:43:49;102004.03;;;11.01;77.96
35647;BME280;28680;45.642;13.756;2023-03-29T05:46:15;102003.19;;;11.00;78.43
35647;BME280;28680;45.642;13.756;2023-03-29T05:48:41;102010.19;;;11.00;79.10
35647;BME280;28680;45.642;13.756;2023-03-29T05:51:06;102012.16;;;10.96;81.20
35647;BME280;28680;45.642;13.756;2023-03-29T05:53:32;102012.53;;;10.90;83.54
35647;BME280;28680;45.642;13.756;2023-03-29T05:55:59;102002.78;;;10.92;84.66
35647;BME280;28680;45.642;13.756;2023-03-29T05:58:25;102003.75;;;10.91;82.96
35647;BME280;28680;45.642;13.756;2023-03-29T06:00:53;102001.94;;;10.91;83.03
35647;BME280;28680;45.642;13.756;2023-03-29T06:03:21;101998.47;;;10.91;83.28
35647;BME280;28680;45.642;13.756;2023-03-29T06:05:54;102000.91;;;10.94;83.57
35647;BME280;28680;45.642;13.756;2023-03-29T06:08:20;102004.50;;;10.93;83.54
35647;BME280;28680;45.642;13.756;2023-03-29T06:10:46;101994.91;;;10.92;85.69
35647;BME280;28680;45.642;13.756;2023-03-29T06:13:14;101998.19;;;10.96;84.72
35647;BME280;28680;45.642;13.756;2023-03-29T06:15:40;102009.66;;;10.95;83.77
35647;BME280;28680;45.642;13.756;2023-03-29T06:18:06;102007.88;;;10.95;85.11
35647;BME280;28680;45.642;13.756;2023-03-29T06:20:32;102012.66;;;11.03;85.57
35647;BME280;28680;45.642;13.756;2023-03-29T06:22:58;102001.69;;;11.10;83.83
35647;BME280;28680;45.642;13.756;2023-03-29T06:25:23;101983.56;;;11.20;83.73
35647;BME280;28680;45.642;13.756;2023-03-29T06:27:49;101965.53;;;11.28;83.54
35647;BME280;28680;45.642;13.756;2023-03-29T06:30:16;101957.38;;;11.33;82.12
35647;BME280;28680;45.642;13.756;2023-03-29T06:32:43;101956.16;;;11.39;81.43
35647;BME280;28680;45.642;13.756;2023-03-29T06:35:09;101957.84;;;11.40;82.98
35647;BME280;28680;45.642;13.756;2023-03-29T06:37:36;101954.53;;;11.50;82.81
35647;BME280;28680;45.642;13.756;2023-03-29T06:40:03;101949.09;;;11.54;82.24
35647;BME280;28680;45.642;13.756;2023-03-29T06:42:31;101956.00;;;11.69;80.71
35647;BME280;28680;45.642;13.756;2023-03-29T06:44:57;101951.31;;;11.74;81.66
35647;BME280;28680;45.642;13.756;2023-03-29T06:47:23;101954.59;;;11.78;80.43
35647;BME280;28680;45.642;13.756;2023-03-29T06:49:55;101956.34;;;11.77;79.35
35647;BME280;28680;45.642;13.756;2023-03-29T06:52:21;101946.94;;;11.87;77.16
35647;BME280;28680;45.642;13.756;2023-03-29T06:54:47;101952.31;;;11.86;79.00
35647;BME280;28680;45.642;13.756;2023-03-29T06:57:13;101961.72;;;11.90;78.82
35647;BME280;28680;45.642;13.756;2023-03-29T06:59:39;101970.72;;;12.00;79.12
35647;BME280;28680;45.642;13.756;2023-03-29T07:02:05;101978.03;;;12.22;80.01
35647;BME280;28680;45.642;13.756;2023-03-29T07:04:31;101979.56;;;12.39;79.40
35647;BME280;28680;45.642;13.756;2023-03-29T07:06:58;101980.25;;;12.28;83.96
35647;BME280;28680;45.642;13.756;2023-03-29T07:09:27;101999.16;;;12.08;87.73
35647;BME280;28680;45.642;13.756;2023-03-29T07:11:57;101996.41;;;12.09;94.66
35647;BME280;28680;45.642;13.756;2023-03-29T07:14:24;101999.91;;;12.10;98.29
35647;BME280;28680;45.642;13.756;2023-03-29T07:16:54;102014.25;;;12.19;100.00
35647;BME280;28680;45.642;13.756;2023-03-29T07:19:21;102019.41;;;12.20;100.00
35647;BME280;28680;45.642;13.756;2023-03-29T07:21:49;102012.81;;;12.27;100.00
35647;BME280;28680;45.642;13.756;2023-03-29T07:24:15;102023.00;;;12.19;100.00
35647;BME280;28680;45.642;13.756;2023-03-29T07:26:41;102026.66;;;12.17;100.00
35647;BME280;28680;45.642;13.756;2023-03-29T07:29:07;102021.94;;;12.22;100.00
35647;BME280;28680;45.642;13.756;2023-03-29T07:31:35;102030.28;;;12.28;100.00
35647;BME280;28680;45.642;13.756;2023-03-29T07:34:03;102033.06;;;12.40;100.00
35647;BME280;28680;45.642;13.756;2023-03-29T07:36:30;102026.53;;;12.33;100.00
35647;BME280;28680;45.642;13.756;2023-03-29T07:38:58;102024.63;;;12.35;100.00
35647;BME280;28680;45.642;13.756;2023-03-29T07:41:26;102018.22;;;12.39;100.00
35647;BME280;28680;45.642;13.756;2023-03-29T07:43:52;102019.88;;;12.27;100.00
35647;BME280;28680;45.642;13.756;2023-03-29T07:46:18;102010.28;;;12.26;100.00
35647;BME280;28680;45.642;13.756;2023-03-29T07:48:44;102012.22;;;12.37;100.00
35647;BME280;28680;45.642;13.756;2023-03-29T07:51:10;102013.56;;;12.29;100.00
35647;BME280;28680;45.642;13.756;2023-03-29T07:53:36;102012.31;;;12.35;100.00
35647;BME280;28680;45.642;13.756;2023-03-29T07:56:03;102006.53;;;12.43;100.00
35647;BME280;28680;45.642;13.756;2023-03-29T07:58:29;102006.53;;;12.43;100.00
35647;BME280;28680;45.642;13.756;2023-03-29T08:00:54;102012.03;;;12.53;100.00
35647;BME280;28680;45.642;13.756;2023-03-29T08:03:20;102004.88;;;12.55;100.00
35647;BME280;28680;45.642;13.756;2023-03-29T08:05:46;102001.53;;;12.65;100.00
35647;BME280;28680;45.642;13.756;2023-03-29T08:08:11;102004.63;;;12.72;100.00
35647;BME280;28680;45.642;13.756;2023-03-29T08:10:38;102009.75;;;12.74;100.00
35647;BME280;28680;45.642;13.756;2023-03-29T08:13:05;102020.28;;;12.74;100.00
35647;BME280;28680;45.642;13.756;2023-03-29T08:15:32;102024.19;;;12.68;100.00
35647;BME280;28680;45.642;13.756;2023-03-29T08:17:58;102020.50;;;12.71;100.00
35647;BME280;28680;45.642;13.756;2023-03-29T08:20:24;102012.19;;;12.77;100.00
35647;BME280;28680;45.642;13.756;2023-03-29T08:22:50;102020.75;;;13.06;100.00
35647;BME280;28680;45.642;13.756;2023-03-29T08:25:16;102013.59;;;13.08;100.00
35647;BME280;28680;45.642;13.756;2023-03-29T08:27:42;102010.06;;;13.59;100.00
35647;BME280;28680;45.642;13.756;2023-03-29T08:30:09;102013.06;;;14.39;100.00
35647;BME280;28680;45.642;13.756;2023-03-29T08:32:36;102018.84;;;14.20;100.00
35647;BME280;28680;45.642;13.756;2023-03-29T08:35:03;102018.81;;;14.33;100.00
35647;BME280;28680;45.642;13.756;2023-03-29T08:37:30;102016.31;;;13.95;100.00
35647;BME280;28680;45.642;13.756;2023-03-29T08:39:56;102015.28;;;14.21;100.00
35647;BME280;28680;45.642;13.756;2023-03-29T08:45:25;102001.91;;;14.71;100.00
35647;BME280;28680;45.642;13.756;2023-03-29T08:50:42;102002.31;;;15.00;100.00
35647;BME280;28680;45.642;13.756;2023-03-29T08:53:33;101993.94;;;15.29;100.00
35647;BME280;28680;45.642;13.756;2023-03-29T08:56:03;101996.44;;;15.19;100.00
35647;BME280;28680;45.642;13.756;2023-03-29T08:58:32;101999.94;;;15.65;93.40
35647;BME280;28680;45.642;13.756;2023-03-29T09:00:59;101991.56;;;16.04;93.95
35647;BME280;28680;45.642;13.756;2023-03-29T09:03:34;101983.09;;;16.10;88.02
35647;BME280;28680;45.642;13.756;2023-03-29T09:06:07;101981.03;;;16.13;86.64
35647;BME280;28680;45.642;13.756;2023-03-29T09:08:47;101990.53;;;16.48;84.99
35647;BME280;28680;45.642;13.756;2023-03-29T09:13:54;101992.03;;;16.62;83.43
35647;BME280;28680;45.642;13.756;2023-03-29T09:16:30;101991.25;;;16.71;75.69
35647;BME280;28680;45.642;13.756;2023-03-29T09:27:28;101978.44;;;17.28;71.44
35647;BME280;28680;45.642;13.756;2023-03-29T09:30:15;101985.56;;;17.28;72.33
35647;BME280;28680;45.642;13.756;2023-03-29T09:32:59;101977.72;;;16.74;68.45
35647;BME280;28680;45.642;13.756;2023-03-29T09:35:37;101966.53;;;17.13;62.19
35647;BME280;28680;45.642;13.756;2023-03-29T09:38:04;101982.72;;;17.20;62.86
35647;BME280;28680;45.642;13.756;2023-03-29T09:40:36;101983.56;;;17.51;62.75
35647;BME280;28680;45.642;13.756;2023-03-29T09:43:02;101979.47;;;17.06;62.69
35647;BME280;28680;45.642;13.756;2023-03-29T09:45:35;101980.31;;;17.38;62.17
35647;BME280;28680;45.642;13.756;2023-03-29T09:48:09;101986.66;;;17.66;57.92
35647;BME280;28680;45.642;13.756;2023-03-29T09:50:45;101977.31;;;17.71;56.33
35647;BME280;28680;45.642;13.756;2023-03-29T09:53:14;101989.13;;;18.08;55.54
35647;BME280;28680;45.642;13.756;2023-03-29T09:55:40;101985.34;;;17.91;58.11
35647;BME280;28680;45.642;13.756;2023-03-29T09:58:19;101991.09;;;17.96;57.04
35647;BME280;28680;45.642;13.756;2023-03-29T10:00:47;101986.03;;;18.03;55.51
35647;BME280;28680;45.642;13.756;2023-03-29T10:03:24;101977.09;;;18.04;56.01
35647;BME280;28680;45.642;13.756;2023-03-29T10:05:53;101982.47;;;17.73;55.91
35647;BME280;28680;45.642;13.756;2023-03-29T10:08:28;101975.00;;;18.27;51.84
35647;BME280;28680;45.642;13.756;2023-03-29T10:10:58;101977.53;;;18.28;47.86
35647;BME280;28680;45.642;13.756;2023-03-29T10:13:29;101974.16;;;18.46;50.75
35647;BME280;28680;45.642;13.756;2023-03-29T10:16:06;101975.41;;;18.42;51.97
35647;BME280;28680;45.642;13.756;2023-03-29T10:18:39;101968.19;;;18.91;49.48
35647;BME280;28680;45.642;13.756;2023-03-29T10:21:05;101982.78;;;18.77;49.36
35647;BME280;28680;45.642;13.756;2023-03-29T10:23:36;101991.19;;;18.63;49.55
35647;BME280;28680;45.642;13.756;2023-03-29T10:26:04;101961.84;;;19.12;49.93
35647;BME280;28680;45.642;13.756;2023-03-29T10:28:32;101968.84;;;19.58;49.69
35647;BME280;28680;45.642;13.756;2023-03-29T10:30:59;101967.13;;;19.67;49.81
35647;BME280;28680;45.642;13.756;2023-03-29T10:33:35;101959.69;;;20.42;47.17
35647;BME280;28680;45.642;13.756;2023-03-29T10:36:03;101950.59;;;19.91;48.39
35647;BME280;28680;45.642;13.756;2023-03-29T10:38:31;101951.44;;;20.54;48.39
35647;BME280;28680;45.642;13.756;2023-03-29T10:41:09;101940.28;;;20.58;47.14
35647;BME280;28680;45.642;13.756;2023-03-29T10:43:39;101940.41;;;21.09;45.95
35647;BME280;28680;45.642;13.756;2023-03-29T10:46:28;101936.16;;;20.90;45.54
35647;BME280;28680;45.642;13.756;2023-03-29T10:49:03;101936.47;;;21.21;43.17
35647;BME280;28680;45.642;13.756;2023-03-29T10:51:30;101933.31;;;20.83;43.93
35647;BME280;28680;45.642;13.756;2023-03-29T10:53:57;101929.91;;;21.50;42.75
35647;BME280;28680;45.642;13.756;2023-03-29T10:56:41;101918.84;;;21.37;42.28
35647;BME280;28680;45.642;13.756;2023-03-29T10:59:27;101935.47;;;21.73;42.13
35647;BME280;28680;45.642;13.756;2023-03-29T11:16:11;101933.34;;;22.43;88.79
35647;BME280;28680;45.642;13.756;2023-03-29T11:21:38;101919.38;;;22.80;83.60
35647;BME280;28680;45.642;13.756;2023-03-29T11:34:52;101917.47;;;23.05;82.78
35647;BME280;28680;45.642;13.756;2023-03-29T11:42:47;101911.81;;;22.92;86.68
35647;BME280;28680;45.642;13.756;2023-03-29T11:45:21;101911.56;;;22.62;98.12
35647;BME280;28680;45.642;13.756;2023-03-29T11:47:49;101914.44;;;22.52;98.20
35647;BME280;28680;45.642;13.756;2023-03-29T11:52:51;101905.69;;;22.75;96.26
35647;BME280;28680;45.642;13.756;2023-03-29T11:55:26;101910.06;;;22.60;100.00
35647;BME280;28680;45.642;13.756;2023-03-29T11:58:14;101904.69;;;22.68;100.00
35647;BME280;28680;45.642;13.756;2023-03-29T12:00:47;101899.00;;;22.63;100.00
35647;BME280;28680;45.642;13.756;2023-03-29T12:05:56;101889.44;;;22.76;100.00
35647;BME280;28680;45.642;13.756;2023-03-29T12:13:32;101885.75;;;22.86;100.00
35647;BME280;28680;45.642;13.756;2023-03-29T12:18:45;101904.44;;;23.33;88.81
35647;BME280;28680;45.642;13.756;2023-03-29T12:21:19;101894.72;;;23.32;100.00
35647;BME280;28680;45.642;13.756;2023-03-29T12:23:45;101897.28;;;23.26;100.00
35647;BME280;28680;45.642;13.756;2023-03-29T12:35:32;101881.88;;;23.51;100.00
35647;BME280;28680;45.642;13.756;2023-03-29T12:40:38;101870.03;;;23.45;100.00
35647;BME280;28680;45.642;13.756;2023-03-29T12:43:08;101865.94;;;23.58;100.00
35647;BME280;28680;45.642;13.756;2023-03-29T12:45:43;101872.66;;;24.00;86.51
35647;BME280;28680;45.642;13.756;2023-03-29T12:48:18;101885.34;;;24.06;79.32
35647;BME280;28680;45.642;13.756;2023-03-29T12:50:59;101878.44;;;24.26;83.88
35647;BME280;28680;45.642;13.756;2023-03-29T12:53:40;101872.84;;;24.66;60.92
35647;BME280;28680;45.642;13.756;2023-03-29T12:56:16;101883.09;;;24.92;55.07
35647;BME280;28680;45.642;13.756;2023-03-29T13:01:36;101894.84;;;24.46;78.60
35647;BME280;28680;45.642;13.756;2023-03-29T13:04:20;101895.25;;;24.58;64.26
35647;BME280;28680;45.642;13.756;2023-03-29T13:06:59;101892.16;;;24.91;59.95
35647;BME280;28680;45.642;13.756;2023-03-29T13:09:33;101891.06;;;24.70;46.68
35647;BME280;28680;45.642;13.756;2023-03-29T13:12:51;101891.88;;;24.41;44.52
35647;BME280;28680;45.642;13.756;2023-03-29T13:14:56;101880.31;;;24.85;47.84
35647;BME280;28680;45.642;13.756;2023-03-29T13:17:36;101890.25;;;25.79;50.66
35647;BME280;28680;45.642;13.756;2023-03-29T13:23:21;101884.38;;;23.99;53.77
35647;BME280;28680;45.642;13.756;2023-03-29T13:25:44;101883.03;;;24.03;55.52
35647;BME280;28680;45.642;13.756;2023-03-29T13:28:28;101892.59;;;23.82;57.82
35647;BME280;28680;45.642;13.756;2023-03-29T13:34:00;101893.78;;;24.32;49.26
35647;BME280;28680;45.642;13.756;2023-03-29T13:39:22;101887.16;;;23.36;54.79
35647;BME280;28680;45.642;13.756;2023-03-29T13:41:53;101888.06;;;23.28;56.21
35647;BME280;28680;45.642;13.756;2023-03-29T13:44:26;101895.50;;;23.72;56.04
35647;BME280;28680;45.642;13.756;2023-03-29T13:49:42;101892.97;;;23.48;54.16
35647;BME280;28680;45.642;13.756;2023-03-29T13:52:15;101888.63;;;22.76;62.95
35647;BME280;28680;45.642;13.756;2023-03-29T14:00:09;101888.03;;;23.05;61.24
35647;BME280;28680;45.642;13.756;2023-03-29T14:02:55;101887.72;;;23.54;63.70
35647;BME280;28680;45.642;13.756;2023-03-29T14:05:27;101891.84;;;23.42;66.59
35647;BME280;28680;45.642;13.756;2023-03-29T14:07:53;101904.56;;;23.40;73.02
35647;BME280;28680;45.642;13.756;2023-03-29T14:10:40;101902.19;;;22.66;83.69
35647;BME280;28680;45.642;13.756;2023-03-29T14:13:13;101900.69;;;23.11;83.41
35647;BME280;28680;45.642;13.756;2023-03-29T14:15:56;101898.25;;;22.93;81.97
35647;BME280;28680;45.642;13.756;2023-03-29T14:18:35;101900.13;;;23.24;82.41
35647;BME280;28680;45.642;13.756;2023-03-29T14:21:05;101898.09;;;24.04;76.45
35647;BME280;28680;45.642;13.756;2023-03-29T14:23:37;101891.84;;;23.65;80.94
35647;BME280;28680;45.642;13.756;2023-03-29T14:26:08;101901.56;;;23.04;85.26
35647;BME280;28680;45.642;13.756;2023-03-29T14:28:49;101915.63;;;22.00;95.75
35647;BME280;28680;45.642;13.756;2023-03-29T14:31:22;101907.97;;;22.86;87.43
35647;BME280;28680;45.642;13.756;2023-03-29T14:33:52;101906.53;;;23.23;78.25
35647;BME280;28680;45.642;13.756;2023-03-29T14:36:18;101903.50;;;23.81;73.59
35647;BME280;28680;45.642;13.756;2023-03-29T14:41:11;101915.78;;;22.48;74.44
35647;BME280;28680;45.642;13.756;2023-03-29T14:43:37;101913.09;;;22.24;79.42